sensor_id;sensor_type;location;lat;lon;timestamp;temperature;humidity
9006;DHT22;62284;50.702;7.140;2022-11-20T00:01:06;5.10;99.90
9006;DHT22;62284;50.702;7.140;2022-11-20T00:03:33;5.00;99.90
9006;DHT22;62284;50.702;7.140;2022-11-20T00:06:00;5.00;99.90
9006;DHT22;62284;50.702;7.140;2022-11-20T00:08:27;5.10;99.90
9006;DHT22;62284;50.702;7.140;2022-11-20T00:10:54;5.00;99.90
9006;DHT22;62284;50.702;7.140;2022-11-20T00:13:21;5.10;99.90
9006;DHT22;62284;50.702;7.140;2022-11-20T00:15:56;5.10;99.90
9006;DHT22;62284;50.702;7.140;2022-11-20T00:18:23;5.20;99.90
9006;DHT22;62284;50.702;7.140;2022-11-20T00:20:50;5.20;99.90
9006;DHT22;62284;50.702;7.140;2022-11-20T00:23:17;5.20;99.90
9006;DHT22;62284;50.702;7.140;2022-11-20T00:25:44;5.20;99.90
9006;DHT22;62284;50.702;7.140;2022-11-20T00:28:11;5.20;99.90
9006;DHT22;62284;50.702;7.140;2022-11-20T00:30:38;5.10;99.90
9006;DHT22;62284;50.702;7.140;2022-11-20T00:33:06;5.10;99.90
9006;DHT22;62284;50.702;7.140;2022-11-20T00:35:33;5.10;99.90
9006;DHT22;62284;50.702;7.140;2022-11-20T00:38:00;5.10;99.90
9006;DHT22;62284;50.702;7.140;2022-11-20T00:40:27;5.10;99.90
9006;DHT22;62284;50.702;7.140;2022-11-20T00:42:54;5.10;99.90
9006;DHT22;62284;50.702;7.140;2022-11-20T00:45:20;5.10;99.90
9006;DHT22;62284;50.702;7.140;2022-11-20T00:47:47;5.10;99.90
9006;DHT22;62284;50.702;7.140;2022-11-20T00:50:16;5.10;99.90
9006;DHT22;62284;50.702;7.140;2022-11-20T00:52:42;5.10;99.90
9006;DHT22;62284;50.702;7.140;2022-11-20T00:55:09;5.00;99.90
9006;DHT22;62284;50.702;7.140;2022-11-20T00:57:36;5.10;99.90
9006;DHT22;62284;50.702;7.140;2022-11-20T01:00:04;5.00;99.90
9006;DHT22;62284;50.702;7.140;2022-11-20T01:02:31;5.10;99.90
9006;DHT22;62284;50.702;7.140;2022-11-20T01:04:58;5.10;99.90
9006;DHT22;62284;50.702;7.140;2022-11-20T01:07:26;5.20;99.90
9006;DHT22;62284;50.702;7.140;2022-11-20T01:09:53;5.10;99.90
9006;DHT22;62284;50.702;7.140;2022-11-20T01:12:20;5.10;99.90
9006;DHT22;62284;50.702;7.140;2022-11-20T01:14:47;5.10;99.90
9006;DHT22;62284;50.702;7.140;2022-11-20T01:17:14;5.10;99.90
9006;DHT22;62284;50.702;7.140;2022-11-20T01:19:41;5.10;99.90
9006;DHT22;62284;50.702;7.140;2022-11-20T01:22:08;5.20;99.90
9006;DHT22;62284;50.702;7.140;2022-11-20T01:24:36;5.20;99.90
9006;DHT22;62284;50.702;7.140;2022-11-20T01:27:03;5.20;99.90
9006;DHT22;62284;50.702;7.140;2022-11-20T01:29:30;5.00;99.90
9006;DHT22;62284;50.702;7.140;2022-11-20T01:31:56;4.90;99.90
9006;DHT22;62284;50.702;7.140;2022-11-20T01:34:23;5.00;99.90
9006;DHT22;62284;50.702;7.140;2022-11-20T01:36:51;5.10;99.90
9006;DHT22;62284;50.702;7.140;2022-11-20T01:39:19;5.00;99.90
9006;DHT22;62284;50.702;7.140;2022-11-20T01:41:49;5.10;99.90
9006;DHT22;62284;50.702;7.140;2022-11-20T01:44:52;4.90;99.90
9006;DHT22;62284;50.702;7.140;2022-11-20T01:47:26;4.70;99.90
9006;DHT22;62284;50.702;7.140;2022-11-20T01:49:59;4.70;99.90
9006;DHT22;62284;50.702;7.140;2022-11-20T01:52:30;4.80;99.90
9006;DHT22;62284;50.702;7.140;2022-11-20T01:55:04;4.80;99.90
9006;DHT22;62284;50.702;7.140;2022-11-20T01:57:33;4.70;99.90
9006;DHT22;62284;50.702;7.140;2022-11-20T02:00:04;4.80;99.90
9006;DHT22;62284;50.702;7.140;2022-11-20T02:02:32;4.80;99.90
9006;DHT22;62284;50.702;7.140;2022-11-20T02:05:04;4.80;99.90
9006;DHT22;62284;50.702;7.140;2022-11-20T02:07:35;4.80;99.90
9006;DHT22;62284;50.702;7.140;2022-11-20T02:10:02;4.80;99.90
9006;DHT22;62284;50.702;7.140;2022-11-20T02:12:29;4.80;99.90
9006;DHT22;62284;50.702;7.140;2022-11-20T02:15:14;4.90;99.90
9006;DHT22;62284;50.702;7.140;2022-11-20T02:17:41;4.80;99.90
9006;DHT22;62284;50.702;7.140;2022-11-20T02:20:09;4.80;99.90
9006;DHT22;62284;50.702;7.140;2022-11-20T02:22:39;5.00;99.90
9006;DHT22;62284;50.702;7.140;2022-11-20T02:25:10;5.00;99.90
9006;DHT22;62284;50.702;7.140;2022-11-20T02:27:37;5.10;99.90
9006;DHT22;62284;50.702;7.140;2022-11-20T02:30:06;5.00;99.90
9006;DHT22;62284;50.702;7.140;2022-11-20T02:32:35;5.10;99.90
9006;DHT22;62284;50.702;7.140;2022-11-20T02:35:07;5.10;99.90
9006;DHT22;62284;50.702;7.140;2022-11-20T02:37:37;5.20;99.90
9006;DHT22;62284;50.702;7.140;2022-11-20T02:40:06;5.20;99.90
9006;DHT22;62284;50.702;7.140;2022-11-20T02:42:35;5.10;99.90
9006;DHT22;62284;50.702;7.140;2022-11-20T02:45:02;5.10;99.90
9006;DHT22;62284;50.702;7.140;2022-11-20T02:47:29;5.00;99.90
9006;DHT22;62284;50.702;7.140;2022-11-20T02:49:55;5.00;99.90
9006;DHT22;62284;50.702;7.140;2022-11-20T02:52:22;5.00;99.90
9006;DHT22;62284;50.702;7.140;2022-11-20T02:54:49;5.00;99.90
9006;DHT22;62284;50.702;7.140;2022-11-20T02:57:16;5.00;99.90
9006;DHT22;62284;50.702;7.140;2022-11-20T02:59:44;4.90;99.90
9006;DHT22;62284;50.702;7.140;2022-11-20T03:02:11;5.20;99.90
9006;DHT22;62284;50.702;7.140;2022-11-20T03:04:38;5.20;99.90
9006;DHT22;62284;50.702;7.140;2022-11-20T03:07:05;5.20;99.90
9006;DHT22;62284;50.702;7.140;2022-11-20T03:09:32;5.10;99.90
9006;DHT22;62284;50.702;7.140;2022-11-20T03:11:59;5.10;99.90
9006;DHT22;62284;50.702;7.140;2022-11-20T03:14:25;5.00;99.90
9006;DHT22;62284;50.702;7.140;2022-11-20T03:16:54;5.10;99.90
9006;DHT22;62284;50.702;7.140;2022-11-20T03:19:21;5.10;99.90
9006;DHT22;62284;50.702;7.140;2022-11-20T03:21:48;5.00;99.90
9006;DHT22;62284;50.702;7.140;2022-11-20T03:24:15;5.10;99.90
9006;DHT22;62284;50.702;7.140;2022-11-20T03:26:42;5.10;99.90
9006;DHT22;62284;50.702;7.140;2022-11-20T03:29:09;5.10;99.90
9006;DHT22;62284;50.702;7.140;2022-11-20T03:31:37;4.90;99.90
9006;DHT22;62284;50.702;7.140;2022-11-20T03:34:07;5.00;99.90
9006;DHT22;62284;50.702;7.140;2022-11-20T03:36:35;5.00;99.90
9006;DHT22;62284;50.702;7.140;2022-11-20T03:39:03;5.00;99.90
9006;DHT22;62284;50.702;7.140;2022-11-20T03:41:35;5.00;99.90
9006;DHT22;62284;50.702;7.140;2022-11-20T03:44:03;4.90;99.90
9006;DHT22;62284;50.702;7.140;2022-11-20T03:46:31;4.90;99.90
9006;DHT22;62284;50.702;7.140;2022-11-20T03:48:58;5.00;99.90
9006;DHT22;62284;50.702;7.140;2022-11-20T03:51:28;4.90;99.90
9006;DHT22;62284;50.702;7.140;2022-11-20T03:53:57;4.90;99.90
9006;DHT22;62284;50.702;7.140;2022-11-20T03:56:26;5.00;99.90
9006;DHT22;62284;50.702;7.140;2022-11-20T03:58:53;5.00;99.90
9006;DHT22;62284;50.702;7.140;2022-11-20T04:01:21;5.10;99.90
9006;DHT22;62284;50.702;7.140;2022-11-20T04:03:49;5.20;99.90
9006;DHT22;62284;50.702;7.140;2022-11-20T04:06:19;5.10;99.90
9006;DHT22;62284;50.702;7.140;2022-11-20T04:08:48;5.10;99.90
9006;DHT22;62284;50.702;7.140;2022-11-20T04:11:17;5.10;99.90
9006;DHT22;62284;50.702;7.140;2022-11-20T04:13:47;5.10;99.90
9006;DHT22;62284;50.702;7.140;2022-11-20T04:16:14;5.00;99.90
9006;DHT22;62284;50.702;7.140;2022-11-20T04:18:41;5.00;99.90
9006;DHT22;62284;50.702;7.140;2022-11-20T04:21:09;5.00;99.90
9006;DHT22;62284;50.702;7.140;2022-11-20T04:23:36;5.00;99.90
9006;DHT22;62284;50.702;7.140;2022-11-20T04:26:06;5.10;99.90
9006;DHT22;62284;50.702;7.140;2022-11-20T04:28:34;5.00;99.90
9006;DHT22;62284;50.702;7.140;2022-11-20T04:31:05;4.80;99.90
9006;DHT22;62284;50.702;7.140;2022-11-20T04:33:32;4.90;99.90
9006;DHT22;62284;50.702;7.140;2022-11-20T04:36:02;4.90;99.90
9006;DHT22;62284;50.702;7.140;2022-11-20T04:38:30;5.00;99.90
9006;DHT22;62284;50.702;7.140;2022-11-20T04:40:58;5.00;99.90
9006;DHT22;62284;50.702;7.140;2022-11-20T04:43:27;5.10;99.90
9006;DHT22;62284;50.702;7.140;2022-11-20T04:45:54;5.10;99.90
9006;DHT22;62284;50.702;7.140;2022-11-20T04:48:21;5.00;99.90
9006;DHT22;62284;50.702;7.140;2022-11-20T04:50:48;4.90;99.90
9006;DHT22;62284;50.702;7.140;2022-11-20T04:53:15;4.90;99.90
9006;DHT22;62284;50.702;7.140;2022-11-20T04:55:42;4.90;99.90
9006;DHT22;62284;50.702;7.140;2022-11-20T04:58:09;4.90;99.90
9006;DHT22;62284;50.702;7.140;2022-11-20T05:00:37;5.00;99.90
9006;DHT22;62284;50.702;7.140;2022-11-20T05:03:05;5.00;99.90
9006;DHT22;62284;50.702;7.140;2022-11-20T05:05:33;4.90;99.90
9006;DHT22;62284;50.702;7.140;2022-11-20T05:08:00;5.00;99.90
9006;DHT22;62284;50.702;7.140;2022-11-20T05:10:27;5.00;99.90
9006;DHT22;62284;50.702;7.140;2022-11-20T05:12:54;4.90;99.90
9006;DHT22;62284;50.702;7.140;2022-11-20T05:15:21;5.00;99.90
9006;DHT22;62284;50.702;7.140;2022-11-20T05:17:50;5.00;99.90
9006;DHT22;62284;50.702;7.140;2022-11-20T05:20:17;4.90;99.90
9006;DHT22;62284;50.702;7.140;2022-11-20T05:22:44;4.90;99.90
9006;DHT22;62284;50.702;7.140;2022-11-20T05:25:12;5.00;99.90
9006;DHT22;62284;50.702;7.140;2022-11-20T05:27:39;5.00;99.90
9006;DHT22;62284;50.702;7.140;2022-11-20T05:30:07;4.90;99.90
9006;DHT22;62284;50.702;7.140;2022-11-20T05:32:34;4.80;99.90
9006;DHT22;62284;50.702;7.140;2022-11-20T05:35:03;4.80;99.90
9006;DHT22;62284;50.702;7.140;2022-11-20T05:37:29;4.70;99.90
9006;DHT22;62284;50.702;7.140;2022-11-20T05:39:56;4.90;99.90
9006;DHT22;62284;50.702;7.140;2022-11-20T05:42:23;4.90;99.90
9006;DHT22;62284;50.702;7.140;2022-11-20T05:45:00;5.00;99.90
9006;DHT22;62284;50.702;7.140;2022-11-20T05:47:28;5.00;99.90
9006;DHT22;62284;50.702;7.140;2022-11-20T05:49:55;5.00;99.90
9006;DHT22;62284;50.702;7.140;2022-11-20T05:52:23;5.10;99.90
9006;DHT22;62284;50.702;7.140;2022-11-20T05:54:50;5.10;99.90
9006;DHT22;62284;50.702;7.140;2022-11-20T05:57:17;5.10;99.90
9006;DHT22;62284;50.702;7.140;2022-11-20T05:59:43;5.20;99.90
9006;DHT22;62284;50.702;7.140;2022-11-20T06:02:10;5.10;99.90
9006;DHT22;62284;50.702;7.140;2022-11-20T06:04:37;5.00;99.90
9006;DHT22;62284;50.702;7.140;2022-11-20T06:07:05;5.00;99.90
9006;DHT22;62284;50.702;7.140;2022-11-20T06:09:33;5.00;99.90
9006;DHT22;62284;50.702;7.140;2022-11-20T06:12:00;5.00;99.90
9006;DHT22;62284;50.702;7.140;2022-11-20T06:14:27;5.00;99.90
9006;DHT22;62284;50.702;7.140;2022-11-20T06:16:54;5.10;99.90
9006;DHT22;62284;50.702;7.140;2022-11-20T06:19:21;5.00;99.90
9006;DHT22;62284;50.702;7.140;2022-11-20T06:21:48;5.00;99.90
9006;DHT22;62284;50.702;7.140;2022-11-20T06:24:15;5.00;99.90
9006;DHT22;62284;50.702;7.140;2022-11-20T06:26:43;5.00;99.90
9006;DHT22;62284;50.702;7.140;2022-11-20T06:29:11;5.00;99.90
9006;DHT22;62284;50.702;7.140;2022-11-20T06:31:38;5.10;99.90
9006;DHT22;62284;50.702;7.140;2022-11-20T06:34:04;5.00;99.90
9006;DHT22;62284;50.702;7.140;2022-11-20T06:36:32;5.00;99.90
9006;DHT22;62284;50.702;7.140;2022-11-20T06:38:59;5.00;99.90
9006;DHT22;62284;50.702;7.140;2022-11-20T06:41:26;5.00;99.90
9006;DHT22;62284;50.702;7.140;2022-11-20T06:43:54;5.10;99.90
9006;DHT22;62284;50.702;7.140;2022-11-20T06:46:22;5.10;99.90
9006;DHT22;62284;50.702;7.140;2022-11-20T06:48:49;5.10;99.90
9006;DHT22;62284;50.702;7.140;2022-11-20T06:51:17;5.10;99.90
9006;DHT22;62284;50.702;7.140;2022-11-20T06:53:44;5.20;99.90
9006;DHT22;62284;50.702;7.140;2022-11-20T06:56:10;5.10;99.90
9006;DHT22;62284;50.702;7.140;2022-11-20T06:58:37;5.10;99.90
9006;DHT22;62284;50.702;7.140;2022-11-20T07:01:08;5.10;99.90
9006;DHT22;62284;50.702;7.140;2022-11-20T07:03:35;5.10;99.90
9006;DHT22;62284;50.702;7.140;2022-11-20T07:06:03;5.00;99.90
9006;DHT22;62284;50.702;7.140;2022-11-20T07:08:30;5.10;99.90
9006;DHT22;62284;50.702;7.140;2022-11-20T07:10:58;5.10;99.90
9006;DHT22;62284;50.702;7.140;2022-11-20T07:13:25;5.20;99.90
9006;DHT22;62284;50.702;7.140;2022-11-20T07:15:52;5.20;99.90
9006;DHT22;62284;50.702;7.140;2022-11-20T07:18:21;5.30;99.90
9006;DHT22;62284;50.702;7.140;2022-11-20T07:20:47;5.30;99.90
9006;DHT22;62284;50.702;7.140;2022-11-20T07:23:14;5.30;99.90
9006;DHT22;62284;50.702;7.140;2022-11-20T07:25:41;5.30;99.90
9006;DHT22;62284;50.702;7.140;2022-11-20T07:28:08;5.30;99.90
9006;DHT22;62284;50.702;7.140;2022-11-20T07:30:36;5.20;99.90
9006;DHT22;62284;50.702;7.140;2022-11-20T07:33:03;5.20;99.90
9006;DHT22;62284;50.702;7.140;2022-11-20T07:35:32;5.20;99.90
9006;DHT22;62284;50.702;7.140;2022-11-20T07:37:59;5.20;99.90
9006;DHT22;62284;50.702;7.140;2022-11-20T07:40:25;5.30;99.90
9006;DHT22;62284;50.702;7.140;2022-11-20T07:42:54;5.30;99.90
9006;DHT22;62284;50.702;7.140;2022-11-20T07:45:23;5.30;99.90
9006;DHT22;62284;50.702;7.140;2022-11-20T07:47:50;5.40;99.90
9006;DHT22;62284;50.702;7.140;2022-11-20T07:50:18;5.40;99.90
9006;DHT22;62284;50.702;7.140;2022-11-20T07:52:46;5.30;99.90
9006;DHT22;62284;50.702;7.140;2022-11-20T07:55:14;5.30;99.90
9006;DHT22;62284;50.702;7.140;2022-11-20T07:57:41;5.40;99.90
9006;DHT22;62284;50.702;7.140;2022-11-20T08:00:10;5.50;99.90
9006;DHT22;62284;50.702;7.140;2022-11-20T08:02:37;5.50;99.90
9006;DHT22;62284;50.702;7.140;2022-11-20T08:05:06;5.60;99.90
9006;DHT22;62284;50.702;7.140;2022-11-20T08:07:36;5.60;99.90
9006;DHT22;62284;50.702;7.140;2022-11-20T08:10:05;5.80;99.90
9006;DHT22;62284;50.702;7.140;2022-11-20T08:12:33;5.70;99.90
9006;DHT22;62284;50.702;7.140;2022-11-20T08:15:17;5.70;99.90
9006;DHT22;62284;50.702;7.140;2022-11-20T08:17:43;5.70;99.90
9006;DHT22;62284;50.702;7.140;2022-11-20T08:20:10;5.70;99.90
9006;DHT22;62284;50.702;7.140;2022-11-20T08:22:37;5.70;99.90
9006;DHT22;62284;50.702;7.140;2022-11-20T08:25:06;5.70;99.90
9006;DHT22;62284;50.702;7.140;2022-11-20T08:27:33;6.00;99.90
9006;DHT22;62284;50.702;7.140;2022-11-20T08:30:00;6.00;99.90
9006;DHT22;62284;50.702;7.140;2022-11-20T08:32:27;6.10;99.90
9006;DHT22;62284;50.702;7.140;2022-11-20T08:34:53;6.10;99.90
9006;DHT22;62284;50.702;7.140;2022-11-20T08:37:20;6.00;99.90
9006;DHT22;62284;50.702;7.140;2022-11-20T08:39:47;5.90;99.90
9006;DHT22;62284;50.702;7.140;2022-11-20T08:42:15;5.90;99.90
9006;DHT22;62284;50.702;7.140;2022-11-20T08:44:42;6.00;99.90
9006;DHT22;62284;50.702;7.140;2022-11-20T08:47:09;6.20;99.90
9006;DHT22;62284;50.702;7.140;2022-11-20T08:49:36;6.00;99.90
9006;DHT22;62284;50.702;7.140;2022-11-20T08:52:03;6.10;99.90
9006;DHT22;62284;50.702;7.140;2022-11-20T08:54:30;6.20;99.90
9006;DHT22;62284;50.702;7.140;2022-11-20T08:56:56;6.20;99.90
9006;DHT22;62284;50.702;7.140;2022-11-20T08:59:25;6.20;99.90
9006;DHT22;62284;50.702;7.140;2022-11-20T09:01:51;6.30;99.90
9006;DHT22;62284;50.702;7.140;2022-11-20T09:04:18;6.30;99.90
9006;DHT22;62284;50.702;7.140;2022-11-20T09:06:45;6.20;99.90
9006;DHT22;62284;50.702;7.140;2022-11-20T09:09:16;6.30;99.90
9006;DHT22;62284;50.702;7.140;2022-11-20T09:11:43;6.40;99.90
9006;DHT22;62284;50.702;7.140;2022-11-20T09:14:10;6.40;99.90
9006;DHT22;62284;50.702;7.140;2022-11-20T09:16:39;6.50;99.90
9006;DHT22;62284;50.702;7.140;2022-11-20T09:19:05;6.60;99.90
9006;DHT22;62284;50.702;7.140;2022-11-20T09:21:32;6.70;99.90
9006;DHT22;62284;50.702;7.140;2022-11-20T09:23:59;6.70;99.90
9006;DHT22;62284;50.702;7.140;2022-11-20T09:26:26;6.70;99.90
9006;DHT22;62284;50.702;7.140;2022-11-20T09:28:53;6.70;99.90
9006;DHT22;62284;50.702;7.140;2022-11-20T09:31:22;6.70;99.90
9006;DHT22;62284;50.702;7.140;2022-11-20T09:33:51;6.70;99.90
9006;DHT22;62284;50.702;7.140;2022-11-20T09:36:18;6.70;99.90
9006;DHT22;62284;50.702;7.140;2022-11-20T09:38:45;6.70;99.90
9006;DHT22;62284;50.702;7.140;2022-11-20T09:41:26;6.80;99.90
9006;DHT22;62284;50.702;7.140;2022-11-20T09:44:01;7.00;99.90
9006;DHT22;62284;50.702;7.140;2022-11-20T09:46:38;7.20;99.90
9006;DHT22;62284;50.702;7.140;2022-11-20T09:49:22;7.30;99.90
9006;DHT22;62284;50.702;7.140;2022-11-20T09:51:53;7.60;99.90
9006;DHT22;62284;50.702;7.140;2022-11-20T09:54:27;7.70;99.90
9006;DHT22;62284;50.702;7.140;2022-11-20T09:56:59;7.90;99.90
9006;DHT22;62284;50.702;7.140;2022-11-20T09:59:32;8.50;99.50
9006;DHT22;62284;50.702;7.140;2022-11-20T10:02:01;9.10;98.20
9006;DHT22;62284;50.702;7.140;2022-11-20T10:04:30;9.50;97.20
9006;DHT22;62284;50.702;7.140;2022-11-20T10:07:04;9.50;97.10
9006;DHT22;62284;50.702;7.140;2022-11-20T10:09:35;9.30;96.30
9006;DHT22;62284;50.702;7.140;2022-11-20T10:12:12;9.20;96.40
9006;DHT22;62284;50.702;7.140;2022-11-20T10:14:52;9.20;96.80
9006;DHT22;62284;50.702;7.140;2022-11-20T10:17:29;9.40;96.00
9006;DHT22;62284;50.702;7.140;2022-11-20T10:20:16;9.10;95.70
9006;DHT22;62284;50.702;7.140;2022-11-20T10:23:07;8.90;95.20
9006;DHT22;62284;50.702;7.140;2022-11-20T10:25:40;8.50;96.40
9006;DHT22;62284;50.702;7.140;2022-11-20T10:28:27;8.30;97.40
9006;DHT22;62284;50.702;7.140;2022-11-20T10:30:59;8.20;97.50
9006;DHT22;62284;50.702;7.140;2022-11-20T10:33:29;8.10;98.30
9006;DHT22;62284;50.702;7.140;2022-11-20T10:36:05;7.90;98.60
9006;DHT22;62284;50.702;7.140;2022-11-20T10:38:37;8.00;98.70
9006;DHT22;62284;50.702;7.140;2022-11-20T10:41:06;8.00;98.60
9006;DHT22;62284;50.702;7.140;2022-11-20T10:43:58;7.80;98.70
9006;DHT22;62284;50.702;7.140;2022-11-20T10:46:33;7.80;99.00
9006;DHT22;62284;50.702;7.140;2022-11-20T10:49:06;7.70;99.30
9006;DHT22;62284;50.702;7.140;2022-11-20T10:51:47;7.70;99.40
9006;DHT22;62284;50.702;7.140;2022-11-20T10:54:22;7.50;99.20
9006;DHT22;62284;50.702;7.140;2022-11-20T10:56:52;7.60;99.60
9006;DHT22;62284;50.702;7.140;2022-11-20T10:59:51;7.70;99.80
9006;DHT22;62284;50.702;7.140;2022-11-20T11:02:23;7.70;99.70
9006;DHT22;62284;50.702;7.140;2022-11-20T11:04:51;7.40;99.80
9006;DHT22;62284;50.702;7.140;2022-11-20T11:07:23;7.50;99.90
9006;DHT22;62284;50.702;7.140;2022-11-20T11:09:53;7.50;99.60
9006;DHT22;62284;50.702;7.140;2022-11-20T11:12:21;7.60;99.90
9006;DHT22;62284;50.702;7.140;2022-11-20T11:14:49;7.70;99.90
9006;DHT22;62284;50.702;7.140;2022-11-20T11:17:28;7.80;99.80
9006;DHT22;62284;50.702;7.140;2022-11-20T11:20:17;8.00;99.60
9006;DHT22;62284;50.702;7.140;2022-11-20T11:22:47;8.00;99.10
9006;DHT22;62284;50.702;7.140;2022-11-20T11:25:23;8.10;99.50
9006;DHT22;62284;50.702;7.140;2022-11-20T11:27:51;8.10;99.60
9006;DHT22;62284;50.702;7.140;2022-11-20T11:30:19;8.10;99.30
9006;DHT22;62284;50.702;7.140;2022-11-20T11:32:47;8.20;99.40
9006;DHT22;62284;50.702;7.140;2022-11-20T11:35:25;8.20;99.60
9006;DHT22;62284;50.702;7.140;2022-11-20T11:38:00;8.50;99.20
9006;DHT22;62284;50.702;7.140;2022-11-20T11:40:31;8.50;99.50
9006;DHT22;62284;50.702;7.140;2022-11-20T11:43:01;8.70;99.70
9006;DHT22;62284;50.702;7.140;2022-11-20T11:45:28;8.90;98.90
9006;DHT22;62284;50.702;7.140;2022-11-20T11:47:56;8.80;98.60
9006;DHT22;62284;50.702;7.140;2022-11-20T11:50:25;8.80;98.50
9006;DHT22;62284;50.702;7.140;2022-11-20T11:52:59;8.50;98.60
9006;DHT22;62284;50.702;7.140;2022-11-20T11:55:32;8.60;99.00
9006;DHT22;62284;50.702;7.140;2022-11-20T11:58:09;8.50;99.10
9006;DHT22;62284;50.702;7.140;2022-11-20T12:00:41;8.60;99.10
9006;DHT22;62284;50.702;7.140;2022-11-20T12:03:14;8.40;99.10
9006;DHT22;62284;50.702;7.140;2022-11-20T12:05:45;8.40;99.30
9006;DHT22;62284;50.702;7.140;2022-11-20T12:08:18;8.40;99.50
9006;DHT22;62284;50.702;7.140;2022-11-20T12:10:51;8.40;99.70
9006;DHT22;62284;50.702;7.140;2022-11-20T12:13:38;8.60;99.70
9006;DHT22;62284;50.702;7.140;2022-11-20T12:16:11;9.00;99.10
9006;DHT22;62284;50.702;7.140;2022-11-20T12:18:39;9.20;98.80
9006;DHT22;62284;50.702;7.140;2022-11-20T12:21:20;9.30;98.20
9006;DHT22;62284;50.702;7.140;2022-11-20T12:23:58;9.40;97.90
9006;DHT22;62284;50.702;7.140;2022-11-20T12:26:40;9.40;97.90
9006;DHT22;62284;50.702;7.140;2022-11-20T12:29:13;9.40;98.10
9006;DHT22;62284;50.702;7.140;2022-11-20T12:31:54;9.40;98.30
9006;DHT22;62284;50.702;7.140;2022-11-20T12:34:39;9.60;97.90
9006;DHT22;62284;50.702;7.140;2022-11-20T12:37:17;9.70;97.70
9006;DHT22;62284;50.702;7.140;2022-11-20T12:39:49;9.80;98.00
9006;DHT22;62284;50.702;7.140;2022-11-20T12:42:28;10.00;97.00
9006;DHT22;62284;50.702;7.140;2022-11-20T12:45:29;10.00;97.10
9006;DHT22;62284;50.702;7.140;2022-11-20T12:48:24;10.00;96.70
9006;DHT22;62284;50.702;7.140;2022-11-20T12:51:09;9.70;97.20
9006;DHT22;62284;50.702;7.140;2022-11-20T12:53:47;9.60;97.90
9006;DHT22;62284;50.702;7.140;2022-11-20T12:56:24;9.60;98.30
9006;DHT22;62284;50.702;7.140;2022-11-20T12:59:06;9.40;98.50
9006;DHT22;62284;50.702;7.140;2022-11-20T13:01:40;9.30;98.60
9006;DHT22;62284;50.702;7.140;2022-11-20T13:04:19;9.20;98.90
9006;DHT22;62284;50.702;7.140;2022-11-20T13:06:50;9.20;98.60
9006;DHT22;62284;50.702;7.140;2022-11-20T13:09:20;9.10;99.10
9006;DHT22;62284;50.702;7.140;2022-11-20T13:11:55;9.20;99.20
9006;DHT22;62284;50.702;7.140;2022-11-20T13:14:32;9.20;99.00
9006;DHT22;62284;50.702;7.140;2022-11-20T13:17:05;9.20;99.30
9006;DHT22;62284;50.702;7.140;2022-11-20T13:19:33;9.20;99.50
9006;DHT22;62284;50.702;7.140;2022-11-20T13:22:00;9.20;99.40
9006;DHT22;62284;50.702;7.140;2022-11-20T13:24:29;9.20;99.30
9006;DHT22;62284;50.702;7.140;2022-11-20T13:27:18;9.00;99.80
9006;DHT22;62284;50.702;7.140;2022-11-20T13:29:57;9.00;99.90
9006;DHT22;62284;50.702;7.140;2022-11-20T13:32:26;8.90;99.90
9006;DHT22;62284;50.702;7.140;2022-11-20T13:34:58;8.80;99.90
9006;DHT22;62284;50.702;7.140;2022-11-20T13:37:32;8.90;99.90
9006;DHT22;62284;50.702;7.140;2022-11-20T13:40:12;8.80;99.90
9006;DHT22;62284;50.702;7.140;2022-11-20T13:42:45;8.80;99.90
9006;DHT22;62284;50.702;7.140;2022-11-20T13:45:26;8.70;99.90
9006;DHT22;62284;50.702;7.140;2022-11-20T13:47:54;8.60;99.90
9006;DHT22;62284;50.702;7.140;2022-11-20T13:50:37;8.60;99.90
9006;DHT22;62284;50.702;7.140;2022-11-20T13:53:13;8.70;99.90
9006;DHT22;62284;50.702;7.140;2022-11-20T13:55:50;8.70;99.90
9006;DHT22;62284;50.702;7.140;2022-11-20T13:58:31;8.70;99.90
9006;DHT22;62284;50.702;7.140;2022-11-20T14:01:09;8.70;99.90
9006;DHT22;62284;50.702;7.140;2022-11-20T14:03:36;8.70;99.90
9006;DHT22;62284;50.702;7.140;2022-11-20T14:06:10;8.70;99.90
9006;DHT22;62284;50.702;7.140;2022-11-20T14:08:40;8.70;99.90
9006;DHT22;62284;50.702;7.140;2022-11-20T14:11:15;8.60;99.90
9006;DHT22;62284;50.702;7.140;2022-11-20T14:13:55;8.80;99.90
9006;DHT22;62284;50.702;7.140;2022-11-20T14:16:23;8.80;99.90
9006;DHT22;62284;50.702;7.140;2022-11-20T14:18:51;8.70;99.90
9006;DHT22;62284;50.702;7.140;2022-11-20T14:21:22;8.70;99.90
9006;DHT22;62284;50.702;7.140;2022-11-20T14:23:53;8.60;99.90
9006;DHT22;62284;50.702;7.140;2022-11-20T14:26:20;8.60;99.90
9006;DHT22;62284;50.702;7.140;2022-11-20T14:28:49;8.70;99.90
9006;DHT22;62284;50.702;7.140;2022-11-20T14:31:23;8.70;99.90
9006;DHT22;62284;50.702;7.140;2022-11-20T14:33:52;8.60;99.90
9006;DHT22;62284;50.702;7.140;2022-11-20T14:36:21;8.60;99.90
9006;DHT22;62284;50.702;7.140;2022-11-20T14:38:49;8.60;99.90
9006;DHT22;62284;50.702;7.140;2022-11-20T14:41:19;8.50;99.90
9006;DHT22;62284;50.702;7.140;2022-11-20T14:43:48;8.60;99.90
9006;DHT22;62284;50.702;7.140;2022-11-20T14:46:16;8.50;99.90
9006;DHT22;62284;50.702;7.140;2022-11-20T14:48:47;8.60;99.90
9006;DHT22;62284;50.702;7.140;2022-11-20T14:51:27;8.50;99.90
9006;DHT22;62284;50.702;7.140;2022-11-20T14:53:55;8.50;99.90
9006;DHT22;62284;50.702;7.140;2022-11-20T14:56:22;8.50;99.90
9006;DHT22;62284;50.702;7.140;2022-11-20T14:58:56;8.40;99.90
9006;DHT22;62284;50.702;7.140;2022-11-20T15:01:26;8.30;99.90
9006;DHT22;62284;50.702;7.140;2022-11-20T15:04:00;8.40;99.90
9006;DHT22;62284;50.702;7.140;2022-11-20T15:06:27;8.40;99.90
9006;DHT22;62284;50.702;7.140;2022-11-20T15:08:54;8.30;99.90
9006;DHT22;62284;50.702;7.140;2022-11-20T15:11:27;8.20;99.90
9006;DHT22;62284;50.702;7.140;2022-11-20T15:13:55;8.20;99.90
9006;DHT22;62284;50.702;7.140;2022-11-20T15:16:23;8.20;99.90
9006;DHT22;62284;50.702;7.140;2022-11-20T15:18:52;8.20;99.90
9006;DHT22;62284;50.702;7.140;2022-11-20T15:21:20;8.10;99.90
9006;DHT22;62284;50.702;7.140;2022-11-20T15:23:48;8.10;99.90
9006;DHT22;62284;50.702;7.140;2022-11-20T15:26:20;8.00;99.90
9006;DHT22;62284;50.702;7.140;2022-11-20T15:28:49;7.90;99.90
9006;DHT22;62284;50.702;7.140;2022-11-20T15:31:17;7.90;99.90
9006;DHT22;62284;50.702;7.140;2022-11-20T15:33:44;8.00;99.90
9006;DHT22;62284;50.702;7.140;2022-11-20T15:36:11;8.10;99.90
9006;DHT22;62284;50.702;7.140;2022-11-20T15:38:40;8.10;99.90
9006;DHT22;62284;50.702;7.140;2022-11-20T15:41:07;8.10;99.90
9006;DHT22;62284;50.702;7.140;2022-11-20T15:43:35;8.20;99.90
9006;DHT22;62284;50.702;7.140;2022-11-20T15:46:04;8.20;99.90
9006;DHT22;62284;50.702;7.140;2022-11-20T15:48:34;8.30;99.90
9006;DHT22;62284;50.702;7.140;2022-11-20T15:51:06;8.30;99.90
9006;DHT22;62284;50.702;7.140;2022-11-20T15:53:33;8.30;99.90
9006;DHT22;62284;50.702;7.140;2022-11-20T15:56:01;8.30;99.90
9006;DHT22;62284;50.702;7.140;2022-11-20T15:58:28;8.30;99.90
9006;DHT22;62284;50.702;7.140;2022-11-20T16:00:55;8.30;99.90
9006;DHT22;62284;50.702;7.140;2022-11-20T16:03:22;8.20;99.90
9006;DHT22;62284;50.702;7.140;2022-11-20T16:05:49;8.20;99.90
9006;DHT22;62284;50.702;7.140;2022-11-20T16:08:16;8.10;99.90
9006;DHT22;62284;50.702;7.140;2022-11-20T16:10:42;8.10;99.90
9006;DHT22;62284;50.702;7.140;2022-11-20T16:13:18;8.10;99.90
9006;DHT22;62284;50.702;7.140;2022-11-20T16:16:04;8.10;99.90
9006;DHT22;62284;50.702;7.140;2022-11-20T16:18:32;8.00;99.90
9006;DHT22;62284;50.702;7.140;2022-11-20T16:20:59;8.10;99.90